Belle Union, Indiana
Current Conditions -  °F | °C
As of 10:35 AM on Wednesday 26 Nov 2014 (Local Time) from K4I7 Reporting Station
Overcast Overcast  
Wind Chill: 21°   Ceiling: 1300
Heat Index: 28°   Visibility: 7mi
Dew Point: 23°   Wind: 7mph
Humidity: 80%   Direction: 130°SE
Pressure: 30.13"   Gusts: NA
Location:  39.5431°N, 86.7779°W
Report Text: K4I7 261535Z AUTO 13006KT 7SM OVC013 M02/M05 A3013 RMK AO2
Loading
Personal Weather Stations






























Interactive Weather Map New forecast layout! Learn more

10-Day Weather Forecast

Advertisements
Track Severe Weather on mobile